Time;durP1;ratioP1;P1;durP2;ratioP2;P2;SDS_P1;SDS_P2;PMS_P1;PMS_P2;Temp;Humidity;BMP_temperature;BMP_pressure;BME280_temperature;BME280_humidity;BME280_pressure;Samples;Min_cycle;Max_cycle;Signal;HPM_P1;HPM_P2
2024/03/18 00:00:14;;;;;;;68.97;25.88;;;4.40;92.70;;;;;;4954480;28;20492;-86
2024/03/18 00:02:45;;;;;;;52.35;25.80;;;4.40;92.60;;;;;;4955335;28;20477;-86
2024/03/18 00:05:12;;;;;;;78.28;28.85;;;4.40;92.60;;;;;;4953841;28;20035;-86
2024/03/18 00:07:39;;;;;;;69.88;26.85;;;4.40;92.60;;;;;;4954446;28;20030;-86
2024/03/18 00:10:09;;;;;;;50.85;25.52;;;4.40;92.50;;;;;;4954194;28;20034;-86
2024/03/18 00:12:36;;;;;;;62.03;25.77;;;4.40;92.60;;;;;;4954130;28;20023;-86
2024/03/18 00:15:03;;;;;;;63.85;27.95;;;4.40;92.80;;;;;;4953329;29;20480;-86
2024/03/18 00:17:28;;;;;;;55.27;26.33;;;4.40;92.60;;;;;;4955215;28;20476;-87
2024/03/18 00:19:54;;;;;;;68.90;29.95;;;4.40;92.60;;;;;;4954608;28;20303;-85
2024/03/18 00:22:20;;;;;;;58.20;26.63;;;4.30;92.60;;;;;;4954811;28;20023;-86
2024/03/18 00:24:46;;;;;;;63.55;30.67;;;4.30;92.60;;;;;;4955536;28;20051;-87
2024/03/18 00:27:13;;;;;;;65.28;26.13;;;4.40;92.70;;;;;;4954643;28;20065;-86
2024/03/18 00:29:39;;;;;;;66.68;27.73;;;4.30;92.60;;;;;;4955716;28;20063;-87
2024/03/18 00:32:05;;;;;;;70.35;26.05;;;4.40;92.70;;;;;;4956139;29;20443;-86
2024/03/18 00:34:32;;;;;;;76.15;28.50;;;4.40;92.60;;;;;;4956155;28;20035;-86
2024/03/18 00:36:58;;;;;;;63.08;28.52;;;4.40;92.60;;;;;;4955038;28;20516;-87
2024/03/18 00:39:24;;;;;;;56.47;25.15;;;4.40;92.60;;;;;;4954709;28;20191;-87
2024/03/18 00:41:52;;;;;;;61.67;26.65;;;4.40;92.60;;;;;;4953935;28;20433;-88
2024/03/18 00:44:23;;;;;;;61.65;24.35;;;4.40;92.50;;;;;;4955636;29;20395;-88
2024/03/18 00:46:49;;;;;;;43.20;23.17;;;4.40;92.60;;;;;;4958318;28;20035;-87
2024/03/18 00:49:15;;;;;;;63.25;25.50;;;4.30;92.60;;;;;;4955406;28;20222;-86
2024/03/18 00:51:41;;;;;;;59.33;26.88;;;4.10;92.80;;;;;;4945951;29;20027;-88
2024/03/18 00:54:09;;;;;;;62.75;23.17;;;4.00;93.10;;;;;;4954172;29;20471;-86
2024/03/18 00:56:39;;;;;;;60.65;26.48;;;4.00;93.30;;;;;;4954247;28;20023;-86
2024/03/18 00:59:08;;;;;;;59.78;26.65;;;4.00;93.30;;;;;;4955877;29;20042;-85
2024/03/18 01:01:34;;;;;;;64.97;27.88;;;4.00;93.30;;;;;;4954327;28;20496;-87
2024/03/18 01:04:01;;;;;;;68.30;29.05;;;4.00;93.40;;;;;;4954377;29;20350;-87
2024/03/18 01:06:27;;;;;;;70.57;28.58;;;4.10;93.40;;;;;;4954284;28;20034;-87
2024/03/18 01:08:53;;;;;;;65.78;27.50;;;4.20;93.40;;;;;;4942157;28;20024;-86
2024/03/18 01:11:19;;;;;;;64.13;25.13;;;4.20;93.20;;;;;;4959790;29;20051;-87
2024/03/18 01:13:48;;;;;;;67.93;28.48;;;4.20;93.20;;;;;;4964195;28;20035;-86
2024/03/18 01:16:22;;;;;;;73.03;31.25;;;4.10;93.30;;;;;;4956864;28;20050;-86
2024/03/18 01:18:48;;;;;;;63.20;26.70;;;4.10;93.50;;;;;;4959605;28;20031;-86
2024/03/18 01:21:15;;;;;;;70.03;29.05;;;4.10;93.50;;;;;;4957527;28;20058;-86
2024/03/18 01:23:42;;;;;;;65.10;27.35;;;4.10;93.60;;;;;;4958016;28;20106;-86
2024/03/18 01:26:08;;;;;;;69.25;29.80;;;4.00;93.70;;;;;;4957726;28;20031;-86
2024/03/18 01:28:34;;;;;;;75.80;29.70;;;4.10;93.80;;;;;;4956992;28;20559;-87
2024/03/18 01:31:03;;;;;;;63.08;29.75;;;4.10;93.80;;;;;;4944061;29;20043;-85
2024/03/18 01:33:33;;;;;;;70.75;31.67;;;4.10;93.70;;;;;;4957249;28;20059;-84
2024/03/18 01:36:00;;;;;;;53.13;28.25;;;4.10;93.80;;;;;;4957798;28;20465;-87
2024/03/18 01:38:26;;;;;;;65.93;29.30;;;4.10;93.80;;;;;;4953704;29;20052;-88
2024/03/18 01:40:55;;;;;;;71.68;30.42;;;4.10;93.80;;;;;;4953280;29;20020;-86
2024/03/18 01:43:22;;;;;;;77.45;30.48;;;4.10;93.90;;;;;;4944634;29;20031;-87
2024/03/18 01:45:48;;;;;;;67.05;29.48;;;4.20;93.90;;;;;;4958959;28;20023;-85
2024/03/18 01:48:14;;;;;;;78.40;31.13;;;4.20;93.90;;;;;;4962788;28;20058;-85
2024/03/18 01:50:41;;;;;;;73.55;31.77;;;4.20;93.90;;;;;;4959400;28;20027;-87
2024/03/18 01:53:10;;;;;;;76.50;31.98;;;4.10;93.90;;;;;;4953617;29;20020;-84
2024/03/18 01:55:38;;;;;;;66.72;30.38;;;4.10;93.90;;;;;;4957487;28;20031;-85
2024/03/18 01:58:05;;;;;;;74.28;32.53;;;4.10;93.90;;;;;;4955696;29;20056;-87
2024/03/18 02:00:35;;;;;;;72.40;31.53;;;4.10;93.90;;;;;;4945381;29;20023;-87
2024/03/18 02:03:08;;;;;;;78.72;31.52;;;4.10;94.00;;;;;;4968155;28;20043;-85
2024/03/18 02:05:36;;;;;;;83.93;32.83;;;4.10;94.00;;;;;;4948413;29;20501;-86
2024/03/18 02:08:03;;;;;;;71.15;32.25;;;4.10;94.20;;;;;;4953211;29;20027;-86
2024/03/18 02:10:29;;;;;;;66.93;29.60;;;4.20;94.20;;;;;;4962922;28;20027;-85
2024/03/18 02:13:02;;;;;;;86.30;31.88;;;4.20;94.00;;;;;;4959416;28;20027;-87
2024/03/18 02:15:31;;;;;;;78.53;34.63;;;4.10;94.00;;;;;;4958475;28;20023;-87
2024/03/18 02:17:58;;;;;;;82.28;33.42;;;4.10;94.10;;;;;;4957413;28;20039;-87
2024/03/18 02:20:24;;;;;;;80.20;30.50;;;4.10;94.10;;;;;;4956535;28;20043;-83
2024/03/18 02:22:50;;;;;;;86.43;34.05;;;4.10;94.20;;;;;;4956379;29;20023;-84
2024/03/18 02:25:17;;;;;;;82.20;35.45;;;4.10;94.20;;;;;;4956939;29;20074;-81
2024/03/18 02:27:44;;;;;;;80.77;34.70;;;4.20;94.20;;;;;;4956448;28;20016;-83
2024/03/18 02:30:10;;;;;;;;;;;4.20;94.20;;;;;;4956371;28;20121;-83
2024/03/18 02:32:37;;;;;;;77.20;34.60;;;4.10;94.10;;;;;;4955855;29;19913;-84
2024/03/18 02:35:05;;;;;;;75.30;36.03;;;4.20;94.20;;;;;;4955585;28;20106;-84
2024/03/18 02:37:32;;;;;;;90.63;36.20;;;4.20;94.20;;;;;;4954635;28;20035;-84
2024/03/18 02:40:04;;;;;;;85.60;33.90;;;4.20;94.30;;;;;;4956072;28;20421;-83
2024/03/18 02:42:30;;;;;;;79.13;36.05;;;4.20;94.20;;;;;;4955968;29;20033;-83
2024/03/18 02:44:56;;;;;;;80.85;34.85;;;4.20;94.10;;;;;;4955931;28;20027;-86
2024/03/18 02:47:21;;;;;;;75.45;32.40;;;4.20;94.10;;;;;;4956040;29;20027;-86
2024/03/18 02:49:47;;;;;;;88.40;35.58;;;4.20;94.20;;;;;;4955280;28;20114;-86
2024/03/18 02:52:13;;;;;;;74.28;37.13;;;4.20;94.00;;;;;;4955569;28;20023;-83
2024/03/18 02:54:39;;;;;;;90.78;37.05;;;4.20;94.20;;;;;;4955342;28;20147;-86
2024/03/18 02:57:05;;;;;;;86.82;37.72;;;4.10;94.20;;;;;;4955498;28;20031;-87
2024/03/18 02:59:30;;;;;;;82.28;36.35;;;4.10;94.30;;;;;;4955106;29;20038;-86
2024/03/18 03:01:56;;;;;;;82.22;35.03;;;4.10;94.40;;;;;;4951788;28;20023;-84
2024/03/18 03:04:22;;;;;;;85.60;37.55;;;4.00;94.40;;;;;;4945552;29;20102;-85
2024/03/18 03:06:48;;;;;;;92.60;38.85;;;4.00;94.40;;;;;;4955530;28;20019;-83
2024/03/18 03:09:15;;;;;;;90.50;36.80;;;4.00;94.40;;;;;;4955086;28;20031;-82
2024/03/18 03:11:42;;;;;;;75.68;36.67;;;3.90;94.60;;;;;;4956583;28;20024;-84
2024/03/18 03:14:09;;;;;;;87.10;36.67;;;3.90;94.80;;;;;;4957018;28;20038;-85
2024/03/18 03:16:34;;;;;;;95.22;32.88;;;3.90;94.90;;;;;;4955926;28;20258;-84
2024/03/18 03:19:00;;;;;;;94.10;38.88;;;3.90;94.80;;;;;;4955651;28;20090;-83
2024/03/18 03:21:26;;;;;;;93.35;37.60;;;3.80;94.80;;;;;;4955243;28;20571;-82
2024/03/18 03:23:52;;;;;;;89.38;38.53;;;3.80;95.10;;;;;;4955814;28;20370;-83
2024/03/18 03:26:18;;;;;;;82.47;34.78;;;3.80;95.10;;;;;;4955099;28;20476;-86
2024/03/18 03:28:44;;;;;;;84.28;36.72;;;3.80;95.10;;;;;;4955241;28;20030;-84
2024/03/18 03:31:19;;;;;;;92.28;38.88;;;3.90;95.20;;;;;;4957022;28;20031;-85
2024/03/18 03:33:48;;;;;;;80.05;37.38;;;3.90;95.20;;;;;;4955254;28;20042;-85
2024/03/18 03:36:29;;;;;;;;;;;;;;;;;;;;;
2024/03/18 03:39:08;;;;;;;92.05;38.78;;;4.00;95.10;;;;;;4952661;28;20047;-85
2024/03/18 03:41:58;;;;;;;93.60;42.08;;;3.90;95.10;;;;;;4956291;29;20027;-87
2024/03/18 03:45:25;;;;;;;91.63;38.33;;;3.90;95.10;;;;;;4954801;29;20019;-86
2024/03/18 03:47:52;;;;;;;85.95;38.80;;;3.90;95.10;;;;;;4953538;29;20040;-85
2024/03/18 03:50:18;;;;;;;94.88;40.47;;;3.90;95.20;;;;;;4954156;29;20023;-85
2024/03/18 03:52:44;;;;;;;86.35;38.40;;;3.90;95.20;;;;;;4951455;29;20038;-85
2024/03/18 03:55:09;;;;;;;90.20;38.17;;;4.00;95.30;;;;;;4942629;29;20385;-87
2024/03/18 03:57:35;;;;;;;97.90;40.30;;;4.00;95.20;;;;;;4955300;28;20031;-85
2024/03/18 04:00:03;;;;;;;90.10;39.42;;;4.00;95.30;;;;;;4953605;28;20035;-82
2024/03/18 04:02:29;;;;;;;89.72;39.95;;;4.00;95.30;;;;;;4943768;29;20031;-83
2024/03/18 04:04:55;;;;;;;99.05;39.88;;;4.10;95.20;;;;;;4954089;28;20035;-85
2024/03/18 04:07:25;;;;;;;86.30;38.80;;;4.10;95.20;;;;;;4954735;28;20027;-84
2024/03/18 04:09:51;;;;;;;97.65;43.03;;;4.10;95.10;;;;;;4955186;28;20074;-87
2024/03/18 04:12:18;;;;;;;95.43;41.67;;;4.10;95.20;;;;;;4955363;28;20027;-85
2024/03/18 04:14:44;;;;;;;94.20;39.92;;;4.10;95.20;;;;;;4955163;28;20047;-85
2024/03/18 04:17:12;;;;;;;94.70;42.30;;;4.10;95.10;;;;;;4954404;28;20042;-85
2024/03/18 04:19:38;;;;;;;90.32;41.78;;;4.20;95.30;;;;;;4954076;28;20094;-85
2024/03/18 04:22:04;;;;;;;119.30;43.38;;;4.20;95.10;;;;;;4955000;28;20031;-85
2024/03/18 04:24:31;;;;;;;91.93;40.05;;;4.20;95.00;;;;;;4954800;28;20118;-86
2024/03/18 04:26:57;;;;;;;97.60;41.05;;;4.20;95.00;;;;;;4954493;28;20451;-85
2024/03/18 04:29:23;;;;;;;91.60;40.67;;;4.10;95.00;;;;;;4954505;28;20393;-86
2024/03/18 04:31:49;;;;;;;99.43;43.05;;;4.10;95.20;;;;;;4954478;29;20035;-84
2024/03/18 04:34:15;;;;;;;92.30;42.38;;;4.10;95.30;;;;;;4953016;28;20559;-87
2024/03/18 04:36:41;;;;;;;99.25;40.85;;;4.20;95.20;;;;;;4954308;28;20063;-88
2024/03/18 04:39:07;;;;;;;98.28;42.72;;;4.20;95.10;;;;;;4940511;29;20421;-86
2024/03/18 04:41:36;;;;;;;109.65;42.55;;;4.20;95.20;;;;;;4956800;28;20117;-85
2024/03/18 04:44:02;;;;;;;103.78;42.95;;;4.20;95.20;;;;;;4956621;29;20027;-87
2024/03/18 04:46:28;;;;;;;102.65;42.33;;;4.20;95.10;;;;;;4956435;28;20401;-84
2024/03/18 04:48:54;;;;;;;87.97;42.75;;;4.10;95.20;;;;;;4958076;29;20031;-85
2024/03/18 04:51:19;;;;;;;90.65;37.25;;;4.10;95.30;;;;;;4958924;28;20492;-86
2024/03/18 04:53:45;;;;;;;97.15;40.85;;;4.10;95.20;;;;;;4961645;29;20042;-86
2024/03/18 04:56:11;;;;;;;101.70;40.55;;;4.00;95.30;;;;;;4961882;28;20020;-83
2024/03/18 04:58:36;;;;;;;101.47;44.03;;;4.00;95.50;;;;;;4962507;28;20035;-86
2024/03/18 05:01:03;;;;;;;99.10;41.13;;;4.10;95.50;;;;;;4955263;28;20225;-85
2024/03/18 05:03:29;;;;;;;106.93;43.30;;;4.10;95.50;;;;;;4964761;29;20039;-84
2024/03/18 05:05:55;;;;;;;93.63;42.45;;;4.20;95.50;;;;;;4967227;29;20109;-86
2024/03/18 05:08:21;;;;;;;107.13;43.58;;;4.20;95.40;;;;;;4961654;28;20050;-85
2024/03/18 05:10:47;;;;;;;94.88;41.40;;;4.30;95.40;;;;;;4962460;29;20019;-86
2024/03/18 05:13:13;;;;;;;109.35;41.53;;;4.30;95.40;;;;;;4959740;29;20031;-85
2024/03/18 05:15:39;;;;;;;100.13;41.88;;;4.40;95.30;;;;;;4962886;29;20147;-86
2024/03/18 05:18:05;;;;;;;99.85;40.35;;;4.50;95.30;;;;;;4961149;28;20137;-86
2024/03/18 05:20:30;;;;;;;100.10;42.00;;;4.50;95.20;;;;;;4961322;28;20571;-86
2024/03/18 05:22:56;;;;;;;93.90;38.17;;;4.60;94.90;;;;;;4962308;28;20038;-86
2024/03/18 05:25:23;;;;;;;92.80;40.67;;;4.70;94.70;;;;;;4962189;28;20063;-86
2024/03/18 05:27:49;;;;;;;98.38;41.45;;;4.70;94.80;;;;;;4947570;28;20035;-88
2024/03/18 05:30:14;;;;;;;109.18;43.15;;;4.70;94.80;;;;;;4963243;28;20031;-85
2024/03/18 05:32:40;;;;;;;98.38;43.35;;;4.70;94.70;;;;;;4957863;29;20098;-87
2024/03/18 05:35:07;;;;;;;80.95;39.63;;;4.80;94.60;;;;;;4957122;28;20385;-86
2024/03/18 05:37:33;;;;;;;99.90;43.67;;;4.80;94.40;;;;;;4959318;28;20037;-86
2024/03/18 05:40:03;;;;;;;101.95;38.20;;;4.80;94.40;;;;;;4960457;28;20043;-87
2024/03/18 05:42:31;;;;;;;108.40;43.47;;;4.90;94.40;;;;;;4960421;28;20027;-88
2024/03/18 05:44:57;;;;;;;100.78;45.80;;;4.80;94.30;;;;;;4959761;28;20019;-85
2024/03/18 05:47:23;;;;;;;99.63;39.72;;;4.70;94.30;;;;;;4940179;29;20027;-87
2024/03/18 05:49:49;;;;;;;99.68;40.78;;;4.60;94.40;;;;;;4960017;28;20033;-85
2024/03/18 05:52:15;;;;;;;110.40;42.58;;;4.50;94.60;;;;;;4956362;29;20495;-85
2024/03/18 05:54:40;;;;;;;100.30;40.47;;;4.50;94.80;;;;;;4957875;29;20050;-87
2024/03/18 05:57:07;;;;;;;112.47;41.28;;;4.40;94.90;;;;;;4954269;28;20425;-81
2024/03/18 05:59:32;;;;;;;115.80;46.42;;;4.50;95.10;;;;;;4956996;29;20059;-86
2024/03/18 06:02:00;;;;;;;103.25;42.28;;;4.60;94.90;;;;;;4956951;28;20019;-87
2024/03/18 06:04:26;;;;;;;116.97;43.75;;;4.70;94.80;;;;;;4958413;29;20027;-90
2024/03/18 06:06:52;;;;;;;128.05;48.15;;;4.70;94.70;;;;;;4957826;29;20070;-82
2024/03/18 06:09:18;;;;;;;107.35;45.95;;;4.60;94.80;;;;;;4956007;28;20314;-79
2024/03/18 06:11:44;;;;;;;105.40;45.78;;;4.70;94.80;;;;;;4943940;29;20126;-80
2024/03/18 06:14:11;;;;;;;90.70;43.22;;;4.70;94.80;;;;;;4939884;28;20031;-79
2024/03/18 06:16:37;;;;;;;;;;;4.70;94.80;;;;;;4947619;28;20027;-81
2024/03/18 06:19:04;;;;;;;91.78;41.67;;;4.70;94.70;;;;;;4955716;28;19914;-79
2024/03/18 06:21:45;;;;;;;106.32;41.72;;;4.70;94.80;;;;;;4951219;28;20071;-87
2024/03/18 06:25:54;;;;;;;97.70;42.78;;;4.70;94.80;;;;;;4952807;29;20393;-85
2024/03/18 06:27:00;;;;;;;86.03;39.45;;;4.60;95.00;;;;;;4953361;28;20035;-84
2024/03/18 06:29:27;;;;;;;85.38;38.90;;;4.80;95.10;;;;;;4948671;28;20023;-85
2024/03/18 06:31:53;;;;;;;102.05;42.05;;;5.00;95.00;;;;;;4957160;28;20034;-85
2024/03/18 06:34:18;;;;;;;85.32;37.88;;;5.10;94.60;;;;;;4955540;28;20031;-84
2024/03/18 06:36:46;;;;;;;89.50;41.47;;;5.10;94.50;;;;;;4952511;28;20159;-84
2024/03/18 06:39:12;;;;;;;85.88;40.80;;;5.20;94.50;;;;;;4955697;28;20042;-85
2024/03/18 06:41:38;;;;;;;97.95;38.80;;;5.20;94.40;;;;;;4951234;29;20034;-83
2024/03/18 06:44:05;;;;;;;100.50;41.03;;;5.30;94.30;;;;;;4950900;29;20027;-84
2024/03/18 06:46:31;;;;;;;96.03;40.17;;;5.40;94.10;;;;;;4953846;29;20152;-85
2024/03/18 06:48:59;;;;;;;101.43;37.95;;;5.30;93.90;;;;;;4954811;28;20026;-83
2024/03/18 06:51:25;;;;;;;92.78;38.42;;;5.40;94.10;;;;;;4954271;28;20110;-81
2024/03/18 06:53:51;;;;;;;87.45;39.63;;;5.40;94.00;;;;;;4942142;29;20020;-83
2024/03/18 06:56:17;;;;;;;99.07;40.72;;;5.40;93.90;;;;;;4952556;29;20795;-81
2024/03/18 06:58:43;;;;;;;98.05;41.45;;;5.40;93.90;;;;;;4953468;29;20086;-85
2024/03/18 07:01:10;;;;;;;90.75;40.35;;;5.40;93.80;;;;;;4943958;29;20036;-86
2024/03/18 07:03:37;;;;;;;84.80;39.42;;;5.50;93.80;;;;;;4953601;29;20020;-85
2024/03/18 07:06:04;;;;;;;100.05;40.65;;;5.50;93.60;;;;;;4955166;28;20106;-84
2024/03/18 07:08:29;;;;;;;94.30;43.80;;;5.50;93.90;;;;;;4952461;28;20053;-86
2024/03/18 07:10:55;;;;;;;117.20;43.50;;;5.50;93.80;;;;;;4953711;29;20036;-88
2024/03/18 07:13:21;;;;;;;87.93;43.97;;;5.40;93.80;;;;;;4944025;29;20082;-84
2024/03/18 07:15:47;;;;;;;87.20;44.55;;;5.20;94.00;;;;;;4953681;29;20469;-86
2024/03/18 07:18:13;;;;;;;96.70;45.65;;;5.30;94.30;;;;;;4949491;28;20042;-84
2024/03/18 07:20:39;;;;;;;94.95;45.65;;;5.30;94.40;;;;;;4945090;28;20488;-87
2024/03/18 07:23:05;;;;;;;90.90;48.10;;;5.50;94.30;;;;;;4951185;28;20114;-82
2024/03/18 07:25:31;;;;;;;106.47;48.45;;;5.60;94.10;;;;;;4946564;28;20495;-84
2024/03/18 07:27:57;;;;;;;103.13;47.03;;;5.70;93.70;;;;;;4954507;28;20166;-81
2024/03/18 07:30:23;;;;;;;89.43;42.92;;;5.80;93.60;;;;;;4954362;29;20105;-85
2024/03/18 07:32:49;;;;;;;98.22;46.70;;;5.60;93.60;;;;;;4953508;28;20398;-84
2024/03/18 07:35:15;;;;;;;95.93;47.13;;;5.60;93.70;;;;;;4953112;28;20031;-85
2024/03/18 07:37:44;;;;;;;96.85;44.95;;;5.60;93.70;;;;;;4953678;29;20074;-88
2024/03/18 07:40:11;;;;;;;78.55;42.70;;;5.70;93.80;;;;;;4954742;28;20035;-88
2024/03/18 07:42:39;;;;;;;88.60;45.10;;;5.90;93.60;;;;;;4950916;29;20394;-88
2024/03/18 07:45:06;;;;;;;70.82;38.20;;;6.00;93.40;;;;;;4951495;29;20094;-87
2024/03/18 07:47:33;;;;;;;84.72;39.78;;;6.00;93.30;;;;;;4954293;28;20028;-85
2024/03/18 07:50:00;;;;;;;74.10;38.30;;;6.10;93.10;;;;;;4954359;28;20409;-87
2024/03/18 07:52:26;;;;;;;64.53;33.47;;;6.20;93.00;;;;;;4948991;28;20488;-87
2024/03/18 07:54:52;;;;;;;49.25;28.33;;;6.10;93.00;;;;;;4954272;28;20035;-86
2024/03/18 07:57:17;;;;;;;67.18;32.42;;;6.10;93.00;;;;;;4954353;28;20024;-87
2024/03/18 07:59:43;;;;;;;46.03;27.30;;;6.10;93.20;;;;;;4955700;28;20592;-91
2024/03/18 08:02:09;;;;;;;60.17;31.38;;;6.20;93.20;;;;;;4958240;28;20075;-89
2024/03/18 08:04:40;;;;;;;51.42;29.15;;;6.20;93.10;;;;;;4962847;29;20035;-90
2024/03/18 08:07:06;;;;;;;55.00;29.75;;;6.20;92.90;;;;;;4962365;28;20019;-89
2024/03/18 08:09:37;;;;;;;60.00;31.65;;;6.30;92.90;;;;;;4953585;28;20032;-89
2024/03/18 08:12:03;;;;;;;54.05;29.63;;;6.50;92.70;;;;;;4961817;29;20021;-90
2024/03/18 08:14:36;;;;;;;55.65;29.25;;;6.50;92.80;;;;;;4969855;28;20104;-89
2024/03/18 08:17:04;;;;;;;56.25;29.83;;;6.70;92.60;;;;;;4950532;29;20028;-88
2024/03/18 08:19:30;;;;;;;63.80;33.25;;;6.80;92.20;;;;;;4954997;28;20047;-92
2024/03/18 08:21:56;;;;;;;56.13;32.67;;;6.70;91.90;;;;;;4950993;29;20023;-90
2024/03/18 08:24:22;;;;;;;71.47;32.90;;;6.60;92.00;;;;;;4955461;29;20062;-89
2024/03/18 08:26:47;;;;;;;61.42;33.17;;;6.70;92.00;;;;;;4954484;28;20027;-88
2024/03/18 08:29:13;;;;;;;68.85;34.90;;;6.40;92.20;;;;;;4954813;28;20488;-92
2024/03/18 08:31:39;;;;;;;62.30;35.20;;;6.40;92.60;;;;;;4962513;29;20027;-91
2024/03/18 08:34:05;;;;;;;72.85;35.72;;;6.60;92.50;;;;;;4950738;28;20035;-86
2024/03/18 08:36:33;;;;;;;70.25;33.65;;;6.80;92.00;;;;;;4956742;28;20023;-91
2024/03/18 08:39:02;;;;;;;68.00;34.78;;;6.80;91.90;;;;;;4967997;28;20035;-94
2024/03/18 08:41:28;;;;;;;76.72;35.28;;;7.00;91.90;;;;;;4983042;28;20055;-94
2024/03/18 08:43:54;;;;;;;80.85;39.30;;;7.10;91.60;;;;;;4978073;28;20039;-91
2024/03/18 08:46:20;;;;;;;71.95;37.20;;;7.10;91.40;;;;;;4971438;28;20054;-92
2024/03/18 08:48:45;;;;;;;72.43;37.95;;;7.10;91.10;;;;;;4959713;29;20057;-85
2024/03/18 08:51:14;;;;;;;68.28;36.63;;;7.10;91.30;;;;;;4968363;28;20027;-93
2024/03/18 08:53:43;;;;;;;52.58;31.40;;;7.20;91.30;;;;;;4960146;28;20020;-94
2024/03/18 08:56:13;;;;;;;67.93;32.60;;;7.40;91.20;;;;;;4972464;28;20027;-91
2024/03/18 08:58:39;;;;;;;70.47;33.10;;;7.30;90.80;;;;;;4965023;28;20027;-90
2024/03/18 09:01:08;;;;;;;64.60;31.50;;;7.30;90.80;;;;;;4950670;29;20035;-92
2024/03/18 09:03:37;;;;;;;64.75;32.13;;;7.40;90.90;;;;;;4957700;29;20030;-95
2024/03/18 09:06:15;;;;;;;65.97;35.72;;;7.50;90.60;;;;;;4958529;29;20548;-94
2024/03/18 09:08:45;;;;;;;70.30;35.85;;;7.60;90.40;;;;;;4962865;29;20079;-92
2024/03/18 09:11:12;;;;;;;72.40;33.80;;;7.50;90.40;;;;;;4970117;29;20024;-91
2024/03/18 09:13:40;;;;;;;81.28;34.95;;;7.40;90.40;;;;;;4974640;29;20028;-92
2024/03/18 09:16:09;;;;;;;59.40;33.90;;;7.20;90.50;;;;;;4965680;28;20362;-88
2024/03/18 09:18:35;;;;;;;69.68;36.30;;;7.00;90.70;;;;;;4961328;29;20059;-89
2024/03/18 09:21:01;;;;;;;90.22;37.20;;;6.90;91.10;;;;;;4968337;28;20047;-88
2024/03/18 09:23:27;;;;;;;81.75;35.90;;;7.10;91.10;;;;;;4959379;28;20023;-91
2024/03/18 09:25:52;;;;;;;77.97;36.28;;;7.20;90.90;;;;;;4943595;28;20055;-90
2024/03/18 09:28:19;;;;;;;68.80;34.95;;;7.20;90.80;;;;;;4950996;29;20095;-88
2024/03/18 09:30:45;;;;;;;69.78;37.55;;;7.30;90.90;;;;;;4952945;28;20470;-88
2024/03/18 09:33:11;;;;;;;74.00;35.38;;;7.30;90.60;;;;;;4958770;28;20027;-86
2024/03/18 09:35:40;;;;;;;60.95;35.00;;;7.10;90.80;;;;;;4953445;29;20024;-89
2024/03/18 09:38:06;;;;;;;67.15;35.05;;;7.20;90.90;;;;;;4956307;28;20512;-87
2024/03/18 09:40:32;;;;;;;73.90;36.65;;;7.40;90.80;;;;;;4949169;29;20027;-88
2024/03/18 09:42:58;;;;;;;69.15;34.47;;;7.30;90.30;;;;;;4953354;29;20392;-87
2024/03/18 09:45:24;;;;;;;70.60;33.58;;;7.20;90.40;;;;;;4945704;29;20079;-85
2024/03/18 09:47:50;;;;;;;64.97;36.05;;;7.10;90.60;;;;;;4946446;28;20085;-87
2024/03/18 09:50:17;;;;;;;61.60;33.97;;;7.10;90.70;;;;;;4947520;29;20401;-82
2024/03/18 09:52:44;;;;;;;67.85;33.75;;;7.20;90.50;;;;;;4955966;28;20370;-80
2024/03/18 09:55:24;;;;;;;78.43;36.22;;;7.10;90.40;;;;;;4955868;28;20024;-82
2024/03/18 09:57:51;;;;;;;65.13;34.22;;;6.90;90.60;;;;;;4955212;28;20043;-79
2024/03/18 10:00:19;;;;;;;61.70;33.17;;;6.60;90.90;;;;;;4951851;28;20046;-81
2024/03/18 10:02:46;;;;;;;62.22;34.40;;;6.40;91.30;;;;;;4945619;29;20039;-80
2024/03/18 10:05:13;;;;;;;59.88;33.25;;;6.40;91.70;;;;;;4954450;29;20043;-82
2024/03/18 10:07:45;;;;;;;66.57;36.10;;;6.50;91.50;;;;;;4947781;28;20035;-80
2024/03/18 10:10:20;;;;;;;80.32;38.22;;;6.40;91.30;;;;;;4951464;29;20106;-82
2024/03/18 10:12:49;;;;;;;70.22;35.75;;;6.40;91.70;;;;;;4955801;28;20584;-82
2024/03/18 10:15:15;;;;;;;77.65;40.10;;;6.60;91.60;;;;;;4955358;28;20038;-81
2024/03/18 10:17:41;;;;;;;97.97;42.85;;;6.50;91.40;;;;;;4954301;29;20031;-81
2024/03/18 10:20:25;;;;;;;74.85;41.13;;;6.40;91.50;;;;;;4954975;28;20055;-81
2024/03/18 10:22:54;;;;;;;78.25;37.38;;;6.30;91.70;;;;;;4944725;29;20047;-82
2024/03/18 10:25:26;;;;;;;72.70;38.35;;;6.30;91.90;;;;;;4955222;29;20027;-83
2024/03/18 10:27:55;;;;;;;82.93;42.83;;;6.40;91.80;;;;;;4955814;28;20027;-84
2024/03/18 10:30:21;;;;;;;71.95;36.53;;;6.30;91.70;;;;;;4955779;28;20023;-83
2024/03/18 10:32:48;;;;;;;75.65;38.17;;;6.10;92.00;;;;;;4955182;29;20031;-84
2024/03/18 10:35:26;;;;;;;69.28;33.83;;;5.90;92.10;;;;;;4951508;28;20034;-85
2024/03/18 10:37:57;;;;;;;79.57;36.60;;;5.80;92.30;;;;;;4955128;29;20027;-84
2024/03/18 10:40:39;;;;;;;62.97;33.70;;;5.80;92.50;;;;;;4954247;28;20051;-87
2024/03/18 10:43:10;;;;;;;75.90;34.90;;;5.80;92.40;;;;;;4941733;28;20115;-80
2024/03/18 10:45:48;;;;;;;63.38;33.95;;;5.80;92.40;;;;;;4948760;29;20432;-82
2024/03/18 10:48:21;;;;;;;74.32;33.30;;;5.90;92.20;;;;;;4943184;28;20118;-85
2024/03/18 10:50:48;;;;;;;64.38;33.15;;;5.80;92.20;;;;;;4953389;28;20486;-86
2024/03/18 10:53:21;;;;;;;63.30;34.50;;;5.80;92.30;;;;;;4956131;28;20102;-83
2024/03/18 10:55:49;;;;;;;71.10;34.70;;;5.70;92.50;;;;;;4955893;28;20046;-84
2024/03/18 10:58:16;;;;;;;68.55;34.22;;;5.80;92.60;;;;;;4953738;29;20587;-85
2024/03/18 11:00:45;;;;;;;74.57;34.70;;;5.80;92.30;;;;;;4946992;29;20038;-83
2024/03/18 11:03:15;;;;;;;72.60;34.40;;;5.70;92.40;;;;;;4949873;29;20480;-84
2024/03/18 11:05:58;;;;;;;80.18;34.60;;;5.70;92.40;;;;;;4949920;28;20028;-82
2024/03/18 11:08:25;;;;;;;78.63;34.60;;;5.70;92.50;;;;;;4950458;29;20023;-85
2024/03/18 11:10:54;;;;;;;71.05;37.50;;;5.70;92.50;;;;;;4942797;29;20520;-84
2024/03/18 11:13:30;;;;;;;77.75;35.42;;;5.70;92.40;;;;;;4955106;29;20043;-82
2024/03/18 11:15:57;;;;;;;65.82;35.78;;;5.70;92.50;;;;;;4951643;29;20358;-82
2024/03/18 11:18:27;;;;;;;83.53;38.30;;;5.80;92.30;;;;;;4948733;29;20063;-82
2024/03/18 11:20:59;;;;;;;78.15;36.15;;;5.70;92.40;;;;;;4945904;29;20519;-82
2024/03/18 11:23:34;;;;;;;75.57;35.75;;;5.60;92.50;;;;;;4954696;28;20039;-82
2024/03/18 11:26:08;;;;;;;78.43;35.35;;;5.60;92.60;;;;;;4950283;29;20023;-83
2024/03/18 11:28:42;;;;;;;75.20;35.42;;;5.70;92.80;;;;;;4954070;29;20019;-82
2024/03/18 11:31:10;;;;;;;84.97;35.22;;;5.80;92.40;;;;;;4948951;29;20035;-78
2024/03/18 11:33:38;;;;;;;72.68;34.90;;;5.90;92.40;;;;;;4954456;28;20015;-81
2024/03/18 11:36:08;;;;;;;74.65;35.35;;;5.90;92.20;;;;;;4942843;29;20069;-79
2024/03/18 11:38:37;;;;;;;82.00;37.03;;;6.00;92.10;;;;;;4953765;29;20042;-78
2024/03/18 11:41:03;;;;;;;93.90;38.63;;;6.10;92.00;;;;;;4942995;28;20386;-82
2024/03/18 11:43:32;;;;;;;81.20;33.78;;;6.20;91.70;;;;;;4946308;29;20034;-80
2024/03/18 11:46:02;;;;;;;65.32;31.83;;;6.20;91.70;;;;;;4949895;29;20030;-80
2024/03/18 11:48:28;;;;;;;71.65;31.95;;;6.10;91.30;;;;;;4952914;29;20027;-79
2024/03/18 11:50:55;;;;;;;75.45;33.17;;;5.90;91.50;;;;;;4952968;29;20405;-81
2024/03/18 11:53:21;;;;;;;68.93;34.93;;;5.70;91.90;;;;;;4947697;28;20027;-84
2024/03/18 11:55:54;;;;;;;69.88;33.22;;;5.70;92.10;;;;;;4954578;29;20026;-81
2024/03/18 11:58:23;;;;;;;58.47;30.38;;;5.70;92.20;;;;;;4952873;29;20031;-84
2024/03/18 12:00:50;;;;;;;60.65;30.45;;;5.70;92.00;;;;;;4953917;28;20596;-82
2024/03/18 12:03:16;;;;;;;72.38;32.13;;;5.60;92.20;;;;;;4953579;29;20062;-82
2024/03/18 12:05:44;;;;;;;67.55;33.30;;;5.70;92.10;;;;;;4953966;29;20026;-84
2024/03/18 12:08:22;;;;;;;64.40;33.40;;;5.70;92.20;;;;;;4953916;28;20400;-85
2024/03/18 12:10:53;;;;;;;68.63;33.47;;;5.80;92.20;;;;;;4940993;29;20038;-84
2024/03/18 12:13:21;;;;;;;67.88;33.08;;;5.80;92.00;;;;;;4953309;28;20103;-81
2024/03/18 12:15:47;;;;;;;72.20;29.20;;;5.70;92.00;;;;;;4953746;29;20509;-86
2024/03/18 12:18:15;;;;;;;60.63;27.63;;;5.70;92.20;;;;;;4955072;28;20062;-87
2024/03/18 12:20:41;;;;;;;67.35;29.83;;;5.70;92.10;;;;;;4951200;28;20043;-85
2024/03/18 12:23:16;;;;;;;59.67;30.13;;;5.80;92.10;;;;;;4952860;29;20031;-85
2024/03/18 12:31:09;;;;;;;58.53;29.77;;;5.70;92.00;;;;;;4958940;29;20110;-85
2024/03/18 12:33:35;;;;;;;52.95;30.52;;;5.60;92.00;;;;;;4956035;28;20028;-86
2024/03/18 12:36:06;;;;;;;60.60;26.70;;;5.60;92.10;;;;;;4953845;28;20030;-86
2024/03/18 12:38:37;;;;;;;53.05;27.88;;;5.50;92.30;;;;;;4954388;28;20047;-85
2024/03/18 12:41:07;;;;;;;57.13;27.17;;;5.40;92.60;;;;;;4948439;29;20429;-86
2024/03/18 12:43:36;;;;;;;61.80;28.05;;;5.40;92.70;;;;;;4953586;28;20110;-85
2024/03/18 12:46:02;;;;;;;56.55;26.58;;;5.50;92.50;;;;;;4952036;29;20042;-86